sensor_id;sensor_type;location;lat;lon;timestamp;P1;durP1;ratioP1;P2;durP2;ratioP2
5995;SDS011;3026;53.612;7.278;2023-03-08T00:00:43;0.73;;;0.53;;
5995;SDS011;3026;53.612;7.278;2023-03-08T00:03:11;1.73;;;0.50;;
5995;SDS011;3026;53.612;7.278;2023-03-08T00:05:38;0.83;;;0.60;;
5995;SDS011;3026;53.612;7.278;2023-03-08T00:08:05;3.27;;;0.70;;
5995;SDS011;3026;53.612;7.278;2023-03-08T00:10:32;2.37;;;0.70;;
5995;SDS011;3026;53.612;7.278;2023-03-08T00:13:00;1.03;;;0.60;;
5995;SDS011;3026;53.612;7.278;2023-03-08T00:15:27;2.43;;;0.60;;
5995;SDS011;3026;53.612;7.278;2023-03-08T00:17:54;2.43;;;1.60;;
5995;SDS011;3026;53.612;7.278;2023-03-08T00:20:21;1.23;;;0.60;;
5995;SDS011;3026;53.612;7.278;2023-03-08T00:22:48;2.40;;;0.50;;
5995;SDS011;3026;53.612;7.278;2023-03-08T00:25:14;0.70;;;0.60;;
5995;SDS011;3026;53.612;7.278;2023-03-08T00:27:41;2.83;;;0.70;;
5995;SDS011;3026;53.612;7.278;2023-03-08T00:30:11;1.20;;;0.57;;
5995;SDS011;3026;53.612;7.278;2023-03-08T00:32:38;3.23;;;0.63;;
5995;SDS011;3026;53.612;7.278;2023-03-08T00:35:06;1.07;;;0.50;;
5995;SDS011;3026;53.612;7.278;2023-03-08T00:37:33;3.70;;;0.67;;
5995;SDS011;3026;53.612;7.278;2023-03-08T00:40:00;1.33;;;0.70;;
5995;SDS011;3026;53.612;7.278;2023-03-08T00:42:27;0.50;;;0.50;;
5995;SDS011;3026;53.612;7.278;2023-03-08T00:44:54;1.50;;;0.57;;
5995;SDS011;3026;53.612;7.278;2023-03-08T00:47:22;0.60;;;0.60;;
5995;SDS011;3026;53.612;7.278;2023-03-08T00:49:49;3.37;;;1.00;;
5995;SDS011;3026;53.612;7.278;2023-03-08T00:52:16;2.37;;;0.80;;
5995;SDS011;3026;53.612;7.278;2023-03-08T00:54:43;1.93;;;0.60;;
5995;SDS011;3026;53.612;7.278;2023-03-08T00:57:10;1.10;;;0.70;;
5995;SDS011;3026;53.612;7.278;2023-03-08T00:59:36;2.73;;;0.80;;
5995;SDS011;3026;53.612;7.278;2023-03-08T01:02:03;0.63;;;0.60;;
5995;SDS011;3026;53.612;7.278;2023-03-08T01:04:32;1.13;;;0.70;;
5995;SDS011;3026;53.612;7.278;2023-03-08T01:06:59;0.57;;;0.50;;
5995;SDS011;3026;53.612;7.278;2023-03-08T01:09:26;0.87;;;0.50;;
5995;SDS011;3026;53.612;7.278;2023-03-08T01:11:53;1.53;;;0.97;;
5995;SDS011;3026;53.612;7.278;2023-03-08T01:14:20;0.60;;;0.57;;
5995;SDS011;3026;53.612;7.278;2023-03-08T01:16:47;2.07;;;0.50;;
5995;SDS011;3026;53.612;7.278;2023-03-08T01:19:13;2.53;;;0.67;;
5995;SDS011;3026;53.612;7.278;2023-03-08T01:21:42;1.57;;;0.70;;
5995;SDS011;3026;53.612;7.278;2023-03-08T01:24:09;3.13;;;0.70;;
5995;SDS011;3026;53.612;7.278;2023-03-08T01:26:36;4.17;;;1.20;;
5995;SDS011;3026;53.612;7.278;2023-03-08T01:29:02;1.37;;;0.80;;
5995;SDS011;3026;53.612;7.278;2023-03-08T01:31:31;1.83;;;1.00;;
5995;SDS011;3026;53.612;7.278;2023-03-08T01:33:57;1.10;;;0.80;;
5995;SDS011;3026;53.612;7.278;2023-03-08T01:36:25;1.40;;;0.80;;
5995;SDS011;3026;53.612;7.278;2023-03-08T01:38:54;1.47;;;0.80;;
5995;SDS011;3026;53.612;7.278;2023-03-08T01:41:22;1.53;;;0.90;;
5995;SDS011;3026;53.612;7.278;2023-03-08T01:43:51;0.97;;;0.63;;
5995;SDS011;3026;53.612;7.278;2023-03-08T01:46:19;1.83;;;1.10;;
5995;SDS011;3026;53.612;7.278;2023-03-08T01:48:51;3.00;;;1.00;;
5995;SDS011;3026;53.612;7.278;2023-03-08T01:51:23;1.50;;;0.80;;
5995;SDS011;3026;53.612;7.278;2023-03-08T01:53:56;1.90;;;0.93;;
5995;SDS011;3026;53.612;7.278;2023-03-08T01:56:26;0.70;;;0.70;;
5995;SDS011;3026;53.612;7.278;2023-03-08T01:58:54;1.00;;;0.70;;
5995;SDS011;3026;53.612;7.278;2023-03-08T02:01:22;0.90;;;0.60;;
5995;SDS011;3026;53.612;7.278;2023-03-08T02:03:50;0.70;;;0.70;;
5995;SDS011;3026;53.612;7.278;2023-03-08T02:06:17;0.97;;;0.87;;
5995;SDS011;3026;53.612;7.278;2023-03-08T02:08:45;1.97;;;0.90;;
5995;SDS011;3026;53.612;7.278;2023-03-08T02:11:14;0.63;;;0.63;;
5995;SDS011;3026;53.612;7.278;2023-03-08T02:13:43;1.43;;;0.80;;
5995;SDS011;3026;53.612;7.278;2023-03-08T02:16:11;2.00;;;0.90;;
5995;SDS011;3026;53.612;7.278;2023-03-08T02:18:49;1.43;;;0.90;;
5995;SDS011;3026;53.612;7.278;2023-03-08T02:21:17;1.80;;;0.90;;
5995;SDS011;3026;53.612;7.278;2023-03-08T02:23:45;2.43;;;0.77;;
5995;SDS011;3026;53.612;7.278;2023-03-08T02:26:12;1.90;;;0.83;;
5995;SDS011;3026;53.612;7.278;2023-03-08T02:28:39;1.77;;;0.73;;
5995;SDS011;3026;53.612;7.278;2023-03-08T02:31:06;1.57;;;0.80;;
5995;SDS011;3026;53.612;7.278;2023-03-08T02:33:33;1.93;;;0.97;;
5995;SDS011;3026;53.612;7.278;2023-03-08T02:36:00;1.13;;;0.93;;
5995;SDS011;3026;53.612;7.278;2023-03-08T02:38:28;1.90;;;1.00;;
5995;SDS011;3026;53.612;7.278;2023-03-08T02:40:56;1.80;;;0.87;;
5995;SDS011;3026;53.612;7.278;2023-03-08T02:43:24;2.43;;;0.90;;
5995;SDS011;3026;53.612;7.278;2023-03-08T02:45:51;1.83;;;1.10;;
5995;SDS011;3026;53.612;7.278;2023-03-08T02:48:18;3.17;;;1.03;;
5995;SDS011;3026;53.612;7.278;2023-03-08T02:50:45;1.83;;;0.83;;
5995;SDS011;3026;53.612;7.278;2023-03-08T02:53:12;3.33;;;0.93;;
5995;SDS011;3026;53.612;7.278;2023-03-08T02:55:39;2.17;;;0.93;;
5995;SDS011;3026;53.612;7.278;2023-03-08T02:58:07;2.10;;;1.00;;
5995;SDS011;3026;53.612;7.278;2023-03-08T03:00:35;2.70;;;1.00;;
5995;SDS011;3026;53.612;7.278;2023-03-08T03:03:02;1.13;;;0.83;;
5995;SDS011;3026;53.612;7.278;2023-03-08T03:05:29;1.30;;;0.73;;
5995;SDS011;3026;53.612;7.278;2023-03-08T03:07:56;2.87;;;1.10;;
5995;SDS011;3026;53.612;7.278;2023-03-08T03:10:23;0.83;;;0.60;;
5995;SDS011;3026;53.612;7.278;2023-03-08T03:12:50;1.87;;;1.40;;
5995;SDS011;3026;53.612;7.278;2023-03-08T03:15:19;1.83;;;0.70;;
5995;SDS011;3026;53.612;7.278;2023-03-08T03:17:45;0.80;;;0.80;;
5995;SDS011;3026;53.612;7.278;2023-03-08T03:20:12;2.80;;;0.80;;
5995;SDS011;3026;53.612;7.278;2023-03-08T03:22:40;2.10;;;0.70;;
5995;SDS011;3026;53.612;7.278;2023-03-08T03:25:07;3.43;;;0.70;;
5995;SDS011;3026;53.612;7.278;2023-03-08T03:27:34;1.83;;;0.80;;
5995;SDS011;3026;53.612;7.278;2023-03-08T03:30:00;3.10;;;0.77;;
5995;SDS011;3026;53.612;7.278;2023-03-08T03:32:29;2.27;;;1.00;;
5995;SDS011;3026;53.612;7.278;2023-03-08T03:34:56;2.47;;;0.87;;
5995;SDS011;3026;53.612;7.278;2023-03-08T03:37:23;0.83;;;0.70;;
5995;SDS011;3026;53.612;7.278;2023-03-08T03:39:50;2.30;;;1.13;;
5995;SDS011;3026;53.612;7.278;2023-03-08T03:42:16;1.33;;;0.70;;
5995;SDS011;3026;53.612;7.278;2023-03-08T03:44:43;1.27;;;0.70;;
5995;SDS011;3026;53.612;7.278;2023-03-08T03:47:10;1.10;;;0.70;;
5995;SDS011;3026;53.612;7.278;2023-03-08T03:49:38;3.97;;;0.83;;
5995;SDS011;3026;53.612;7.278;2023-03-08T03:52:05;4.53;;;0.70;;
5995;SDS011;3026;53.612;7.278;2023-03-08T03:54:32;1.37;;;0.60;;
5995;SDS011;3026;53.612;7.278;2023-03-08T03:56:59;1.87;;;0.77;;
5995;SDS011;3026;53.612;7.278;2023-03-08T03:59:26;1.50;;;0.60;;
5995;SDS011;3026;53.612;7.278;2023-03-08T04:01:53;1.80;;;0.70;;
5995;SDS011;3026;53.612;7.278;2023-03-08T04:04:20;1.97;;;0.67;;
5995;SDS011;3026;53.612;7.278;2023-03-08T04:06:48;1.67;;;0.50;;
5995;SDS011;3026;53.612;7.278;2023-03-08T04:09:16;0.87;;;0.60;;
5995;SDS011;3026;53.612;7.278;2023-03-08T04:11:43;0.83;;;0.63;;
5995;SDS011;3026;53.612;7.278;2023-03-08T04:14:10;0.50;;;0.50;;
5995;SDS011;3026;53.612;7.278;2023-03-08T04:16:38;2.40;;;0.60;;
5995;SDS011;3026;53.612;7.278;2023-03-08T04:19:06;2.13;;;0.60;;
5995;SDS011;3026;53.612;7.278;2023-03-08T04:21:36;0.50;;;0.50;;
5995;SDS011;3026;53.612;7.278;2023-03-08T04:24:05;0.70;;;0.57;;
5995;SDS011;3026;53.612;7.278;2023-03-08T04:26:32;0.80;;;0.80;;
5995;SDS011;3026;53.612;7.278;2023-03-08T04:28:59;3.13;;;0.90;;
5995;SDS011;3026;53.612;7.278;2023-03-08T04:31:31;3.13;;;0.80;;
5995;SDS011;3026;53.612;7.278;2023-03-08T04:33:59;3.70;;;0.80;;
5995;SDS011;3026;53.612;7.278;2023-03-08T04:36:27;2.63;;;0.80;;
5995;SDS011;3026;53.612;7.278;2023-03-08T04:38:54;3.60;;;1.03;;
5995;SDS011;3026;53.612;7.278;2023-03-08T04:41:24;2.33;;;0.80;;
5995;SDS011;3026;53.612;7.278;2023-03-08T04:43:51;1.67;;;0.60;;
5995;SDS011;3026;53.612;7.278;2023-03-08T04:46:19;3.13;;;0.93;;
5995;SDS011;3026;53.612;7.278;2023-03-08T04:48:47;1.03;;;0.70;;
5995;SDS011;3026;53.612;7.278;2023-03-08T04:51:17;1.23;;;0.90;;
5995;SDS011;3026;53.612;7.278;2023-03-08T04:53:44;1.50;;;0.67;;
5995;SDS011;3026;53.612;7.278;2023-03-08T04:56:12;2.83;;;0.80;;
5995;SDS011;3026;53.612;7.278;2023-03-08T04:58:42;2.00;;;0.70;;
5995;SDS011;3026;53.612;7.278;2023-03-08T05:01:10;0.60;;;0.60;;
5995;SDS011;3026;53.612;7.278;2023-03-08T05:03:38;4.60;;;0.70;;
5995;SDS011;3026;53.612;7.278;2023-03-08T05:06:06;1.03;;;0.60;;
5995;SDS011;3026;53.612;7.278;2023-03-08T05:08:33;3.47;;;0.93;;
5995;SDS011;3026;53.612;7.278;2023-03-08T05:11:00;1.43;;;0.57;;
5995;SDS011;3026;53.612;7.278;2023-03-08T05:13:29;0.70;;;0.60;;
5995;SDS011;3026;53.612;7.278;2023-03-08T05:15:59;1.10;;;0.67;;
5995;SDS011;3026;53.612;7.278;2023-03-08T05:18:27;4.03;;;0.90;;
5995;SDS011;3026;53.612;7.278;2023-03-08T05:20:54;1.13;;;0.60;;
5995;SDS011;3026;53.612;7.278;2023-03-08T05:23:22;2.83;;;1.00;;
5995;SDS011;3026;53.612;7.278;2023-03-08T05:25:53;1.53;;;0.90;;
5995;SDS011;3026;53.612;7.278;2023-03-08T05:28:21;1.93;;;0.53;;
5995;SDS011;3026;53.612;7.278;2023-03-08T05:30:48;3.13;;;0.50;;
5995;SDS011;3026;53.612;7.278;2023-03-08T05:33:17;0.40;;;0.40;;
5995;SDS011;3026;53.612;7.278;2023-03-08T05:35:51;1.50;;;0.60;;
5995;SDS011;3026;53.612;7.278;2023-03-08T05:38:19;1.07;;;0.40;;
5995;SDS011;3026;53.612;7.278;2023-03-08T05:40:46;1.80;;;0.40;;
5995;SDS011;3026;53.612;7.278;2023-03-08T05:43:13;0.83;;;0.70;;
5995;SDS011;3026;53.612;7.278;2023-03-08T05:45:40;0.50;;;0.40;;
5995;SDS011;3026;53.612;7.278;2023-03-08T05:48:08;0.93;;;0.30;;
5995;SDS011;3026;53.612;7.278;2023-03-08T05:50:37;1.23;;;0.30;;
5995;SDS011;3026;53.612;7.278;2023-03-08T05:53:04;0.97;;;0.40;;
5995;SDS011;3026;53.612;7.278;2023-03-08T05:55:30;1.17;;;0.60;;
5995;SDS011;3026;53.612;7.278;2023-03-08T05:57:57;1.43;;;0.53;;
5995;SDS011;3026;53.612;7.278;2023-03-08T06:00:24;1.03;;;0.50;;
5995;SDS011;3026;53.612;7.278;2023-03-08T06:02:51;1.03;;;0.50;;
5995;SDS011;3026;53.612;7.278;2023-03-08T06:05:18;2.73;;;0.60;;
5995;SDS011;3026;53.612;7.278;2023-03-08T06:07:46;2.43;;;0.50;;
5995;SDS011;3026;53.612;7.278;2023-03-08T06:10:13;1.23;;;0.60;;
5995;SDS011;3026;53.612;7.278;2023-03-08T06:12:41;0.83;;;0.50;;
5995;SDS011;3026;53.612;7.278;2023-03-08T06:15:08;2.13;;;0.50;;
5995;SDS011;3026;53.612;7.278;2023-03-08T06:17:37;0.50;;;0.50;;
5995;SDS011;3026;53.612;7.278;2023-03-08T06:20:04;0.97;;;0.70;;
5995;SDS011;3026;53.612;7.278;2023-03-08T06:22:31;1.70;;;0.43;;
5995;SDS011;3026;53.612;7.278;2023-03-08T06:25:00;0.63;;;0.63;;
5995;SDS011;3026;53.612;7.278;2023-03-08T06:27:27;1.30;;;0.60;;
5995;SDS011;3026;53.612;7.278;2023-03-08T06:29:54;1.00;;;0.70;;
5995;SDS011;3026;53.612;7.278;2023-03-08T06:32:21;4.07;;;0.87;;
5995;SDS011;3026;53.612;7.278;2023-03-08T06:34:48;1.20;;;0.80;;
5995;SDS011;3026;53.612;7.278;2023-03-08T06:37:15;3.13;;;0.80;;
5995;SDS011;3026;53.612;7.278;2023-03-08T06:39:41;3.73;;;0.80;;
5995;SDS011;3026;53.612;7.278;2023-03-08T06:42:10;0.73;;;0.70;;
5995;SDS011;3026;53.612;7.278;2023-03-08T06:44:36;0.67;;;0.60;;
5995;SDS011;3026;53.612;7.278;2023-03-08T06:47:03;1.60;;;0.90;;
5995;SDS011;3026;53.612;7.278;2023-03-08T06:49:30;3.87;;;1.30;;
5995;SDS011;3026;53.612;7.278;2023-03-08T06:51:57;0.63;;;0.63;;
5995;SDS011;3026;53.612;7.278;2023-03-08T06:54:23;0.77;;;0.77;;
5995;SDS011;3026;53.612;7.278;2023-03-08T06:56:50;3.67;;;1.43;;
5995;SDS011;3026;53.612;7.278;2023-03-08T06:59:18;4.23;;;2.20;;
5995;SDS011;3026;53.612;7.278;2023-03-08T07:01:45;4.47;;;1.83;;
5995;SDS011;3026;53.612;7.278;2023-03-08T07:04:12;3.03;;;1.87;;
5995;SDS011;3026;53.612;7.278;2023-03-08T07:06:39;3.00;;;1.90;;
5995;SDS011;3026;53.612;7.278;2023-03-08T07:09:06;2.07;;;1.30;;
5995;SDS011;3026;53.612;7.278;2023-03-08T07:11:32;6.83;;;2.13;;
5995;SDS011;3026;53.612;7.278;2023-03-08T07:13:59;1.57;;;1.00;;
5995;SDS011;3026;53.612;7.278;2023-03-08T07:16:27;3.07;;;2.77;;
5995;SDS011;3026;53.612;7.278;2023-03-08T07:18:54;0.83;;;0.80;;
5995;SDS011;3026;53.612;7.278;2023-03-08T07:21:22;0.90;;;0.90;;
5995;SDS011;3026;53.612;7.278;2023-03-08T07:23:49;3.00;;;1.30;;
5995;SDS011;3026;53.612;7.278;2023-03-08T07:26:17;3.23;;;1.57;;
5995;SDS011;3026;53.612;7.278;2023-03-08T07:28:46;1.83;;;1.73;;
5995;SDS011;3026;53.612;7.278;2023-03-08T07:31:14;6.13;;;1.90;;
5995;SDS011;3026;53.612;7.278;2023-03-08T07:33:42;1.63;;;1.53;;
5995;SDS011;3026;53.612;7.278;2023-03-08T07:36:09;2.30;;;1.70;;
5995;SDS011;3026;53.612;7.278;2023-03-08T07:38:36;3.07;;;1.63;;
5995;SDS011;3026;53.612;7.278;2023-03-08T07:41:03;6.53;;;2.73;;
5995;SDS011;3026;53.612;7.278;2023-03-08T07:43:30;3.17;;;2.33;;
5995;SDS011;3026;53.612;7.278;2023-03-08T07:45:58;8.23;;;4.37;;
5995;SDS011;3026;53.612;7.278;2023-03-08T07:48:25;9.77;;;4.77;;
5995;SDS011;3026;53.612;7.278;2023-03-08T07:50:54;6.43;;;4.10;;
5995;SDS011;3026;53.612;7.278;2023-03-08T07:53:20;3.87;;;2.80;;
5995;SDS011;3026;53.612;7.278;2023-03-08T07:55:47;8.00;;;3.30;;
5995;SDS011;3026;53.612;7.278;2023-03-08T07:58:14;5.37;;;2.10;;
5995;SDS011;3026;53.612;7.278;2023-03-08T08:00:41;2.20;;;1.90;;
5995;SDS011;3026;53.612;7.278;2023-03-08T08:03:08;3.07;;;1.90;;
5995;SDS011;3026;53.612;7.278;2023-03-08T08:05:35;3.47;;;1.73;;
5995;SDS011;3026;53.612;7.278;2023-03-08T08:08:03;3.97;;;1.60;;
5995;SDS011;3026;53.612;7.278;2023-03-08T08:10:30;3.17;;;1.90;;
5995;SDS011;3026;53.612;7.278;2023-03-08T08:12:57;2.67;;;2.07;;
5995;SDS011;3026;53.612;7.278;2023-03-08T08:15:23;1.30;;;1.10;;
5995;SDS011;3026;53.612;7.278;2023-03-08T08:17:51;3.20;;;1.50;;
5995;SDS011;3026;53.612;7.278;2023-03-08T08:20:18;2.73;;;1.17;;
5995;SDS011;3026;53.612;7.278;2023-03-08T08:22:45;1.67;;;0.90;;
5995;SDS011;3026;53.612;7.278;2023-03-08T08:25:15;5.03;;;1.17;;
5995;SDS011;3026;53.612;7.278;2023-03-08T08:27:42;2.20;;;1.10;;
5995;SDS011;3026;53.612;7.278;2023-03-08T08:30:10;2.33;;;1.00;;
5995;SDS011;3026;53.612;7.278;2023-03-08T08:32:39;3.70;;;0.97;;
5995;SDS011;3026;53.612;7.278;2023-03-08T08:35:06;1.63;;;0.80;;
5995;SDS011;3026;53.612;7.278;2023-03-08T08:37:33;1.87;;;1.03;;
5995;SDS011;3026;53.612;7.278;2023-03-08T08:40:00;0.90;;;0.80;;
5995;SDS011;3026;53.612;7.278;2023-03-08T08:42:29;1.87;;;1.03;;
5995;SDS011;3026;53.612;7.278;2023-03-08T08:44:56;2.20;;;1.20;;
5995;SDS011;3026;53.612;7.278;2023-03-08T08:47:23;2.27;;;1.50;;
5995;SDS011;3026;53.612;7.278;2023-03-08T08:49:50;3.87;;;1.53;;
5995;SDS011;3026;53.612;7.278;2023-03-08T08:52:17;4.43;;;2.10;;
5995;SDS011;3026;53.612;7.278;2023-03-08T08:54:44;2.97;;;1.40;;
5995;SDS011;3026;53.612;7.278;2023-03-08T08:57:10;1.63;;;1.33;;
5995;SDS011;3026;53.612;7.278;2023-03-08T08:59:39;2.27;;;1.40;;
5995;SDS011;3026;53.612;7.278;2023-03-08T09:02:05;4.70;;;1.97;;
5995;SDS011;3026;53.612;7.278;2023-03-08T09:04:32;4.80;;;1.77;;
5995;SDS011;3026;53.612;7.278;2023-03-08T09:06:59;4.00;;;1.20;;
5995;SDS011;3026;53.612;7.278;2023-03-08T09:09:26;8.53;;;2.23;;
5995;SDS011;3026;53.612;7.278;2023-03-08T09:11:53;2.00;;;1.20;;
5995;SDS011;3026;53.612;7.278;2023-03-08T09:14:19;4.83;;;1.50;;
5995;SDS011;3026;53.612;7.278;2023-03-08T09:16:48;3.07;;;1.67;;
5995;SDS011;3026;53.612;7.278;2023-03-08T09:19:16;3.30;;;2.00;;
5995;SDS011;3026;53.612;7.278;2023-03-08T09:21:43;3.57;;;2.20;;
5995;SDS011;3026;53.612;7.278;2023-03-08T09:24:10;3.80;;;2.30;;
5995;SDS011;3026;53.612;7.278;2023-03-08T09:26:37;2.10;;;1.67;;
5995;SDS011;3026;53.612;7.278;2023-03-08T09:29:04;3.03;;;1.97;;
5995;SDS011;3026;53.612;7.278;2023-03-08T09:31:31;4.23;;;2.40;;
5995;SDS011;3026;53.612;7.278;2023-03-08T09:34:01;4.87;;;2.60;;
5995;SDS011;3026;53.612;7.278;2023-03-08T09:36:32;3.17;;;2.20;;
5995;SDS011;3026;53.612;7.278;2023-03-08T09:38:59;4.30;;;2.30;;
5995;SDS011;3026;53.612;7.278;2023-03-08T09:41:39;4.70;;;2.50;;
5995;SDS011;3026;53.612;7.278;2023-03-08T09:44:16;6.53;;;2.97;;
5995;SDS011;3026;53.612;7.278;2023-03-08T09:46:57;6.77;;;3.33;;
5995;SDS011;3026;53.612;7.278;2023-03-08T09:49:29;4.70;;;3.13;;
5995;SDS011;3026;53.612;7.278;2023-03-08T09:52:00;4.37;;;2.90;;
5995;SDS011;3026;53.612;7.278;2023-03-08T09:54:32;3.70;;;2.93;;
5995;SDS011;3026;53.612;7.278;2023-03-08T09:57:04;5.23;;;3.37;;
5995;SDS011;3026;53.612;7.278;2023-03-08T09:59:37;4.43;;;3.60;;
5995;SDS011;3026;53.612;7.278;2023-03-08T10:02:13;5.10;;;3.37;;
5995;SDS011;3026;53.612;7.278;2023-03-08T10:04:50;5.17;;;3.93;;
5995;SDS011;3026;53.612;7.278;2023-03-08T10:07:26;3.43;;;3.07;;
5995;SDS011;3026;53.612;7.278;2023-03-08T10:10:12;6.20;;;3.93;;
5995;SDS011;3026;53.612;7.278;2023-03-08T10:12:51;5.50;;;4.20;;
5995;SDS011;3026;53.612;7.278;2023-03-08T10:15:35;7.07;;;4.27;;
5995;SDS011;3026;53.612;7.278;2023-03-08T10:18:09;6.77;;;4.13;;
5995;SDS011;3026;53.612;7.278;2023-03-08T10:20:43;6.77;;;4.60;;
5995;SDS011;3026;53.612;7.278;2023-03-08T10:23:12;8.30;;;4.67;;
5995;SDS011;3026;53.612;7.278;2023-03-08T10:25:40;10.07;;;6.37;;
5995;SDS011;3026;53.612;7.278;2023-03-08T10:28:10;6.30;;;5.13;;
5995;SDS011;3026;53.612;7.278;2023-03-08T10:30:39;10.20;;;4.33;;
5995;SDS011;3026;53.612;7.278;2023-03-08T10:33:10;6.30;;;4.30;;
5995;SDS011;3026;53.612;7.278;2023-03-08T10:35:52;7.00;;;4.40;;
5995;SDS011;3026;53.612;7.278;2023-03-08T10:38:21;5.67;;;3.63;;
5995;SDS011;3026;53.612;7.278;2023-03-08T10:40:55;4.83;;;4.20;;
5995;SDS011;3026;53.612;7.278;2023-03-08T10:43:25;4.17;;;3.77;;
5995;SDS011;3026;53.612;7.278;2023-03-08T10:45:57;4.13;;;3.73;;
5995;SDS011;3026;53.612;7.278;2023-03-08T10:48:25;5.57;;;3.77;;
5995;SDS011;3026;53.612;7.278;2023-03-08T10:51:01;6.40;;;4.10;;
5995;SDS011;3026;53.612;7.278;2023-03-08T10:53:29;5.37;;;3.70;;
5995;SDS011;3026;53.612;7.278;2023-03-08T10:55:58;3.50;;;3.10;;
5995;SDS011;3026;53.612;7.278;2023-03-08T10:58:30;5.03;;;3.97;;
5995;SDS011;3026;53.612;7.278;2023-03-08T11:01:00;4.90;;;3.50;;
5995;SDS011;3026;53.612;7.278;2023-03-08T11:03:28;7.30;;;3.83;;
5995;SDS011;3026;53.612;7.278;2023-03-08T11:05:56;5.10;;;3.33;;
5995;SDS011;3026;53.612;7.278;2023-03-08T11:08:26;6.23;;;3.97;;
5995;SDS011;3026;53.612;7.278;2023-03-08T11:11:03;3.80;;;3.17;;
5995;SDS011;3026;53.612;7.278;2023-03-08T11:13:35;3.73;;;3.23;;
5995;SDS011;3026;53.612;7.278;2023-03-08T11:16:16;3.80;;;3.27;;
5995;SDS011;3026;53.612;7.278;2023-03-08T11:18:57;4.90;;;3.27;;
5995;SDS011;3026;53.612;7.278;2023-03-08T11:21:31;3.77;;;3.30;;
5995;SDS011;3026;53.612;7.278;2023-03-08T11:24:14;5.33;;;3.00;;
5995;SDS011;3026;53.612;7.278;2023-03-08T11:26:48;5.17;;;2.63;;
5995;SDS011;3026;53.612;7.278;2023-03-08T11:29:28;7.37;;;3.70;;
5995;SDS011;3026;53.612;7.278;2023-03-08T11:32:03;4.43;;;2.50;;
5995;SDS011;3026;53.612;7.278;2023-03-08T11:37:34;5.00;;;2.70;;
5995;SDS011;3026;53.612;7.278;2023-03-08T11:40:20;4.83;;;2.87;;
5995;SDS011;3026;53.612;7.278;2023-03-08T11:43:00;4.07;;;2.30;;
5995;SDS011;3026;53.612;7.278;2023-03-08T11:45:36;3.63;;;2.07;;
5995;SDS011;3026;53.612;7.278;2023-03-08T11:48:13;2.80;;;2.23;;
5995;SDS011;3026;53.612;7.278;2023-03-08T11:51:03;3.40;;;2.30;;
5995;SDS011;3026;53.612;7.278;2023-03-08T11:53:38;2.50;;;1.93;;
5995;SDS011;3026;53.612;7.278;2023-03-08T11:59:10;3.37;;;1.80;;
5995;SDS011;3026;53.612;7.278;2023-03-08T12:01:45;2.80;;;1.60;;
5995;SDS011;3026;53.612;7.278;2023-03-08T12:04:16;5.30;;;1.70;;
5995;SDS011;3026;53.612;7.278;2023-03-08T12:06:46;2.10;;;1.53;;
5995;SDS011;3026;53.612;7.278;2023-03-08T12:09:15;3.50;;;1.30;;
5995;SDS011;3026;53.612;7.278;2023-03-08T12:11:50;3.13;;;0.90;;
5995;SDS011;3026;53.612;7.278;2023-03-08T12:14:22;1.90;;;0.97;;
5995;SDS011;3026;53.612;7.278;2023-03-08T12:16:55;2.47;;;1.20;;
5995;SDS011;3026;53.612;7.278;2023-03-08T12:19:31;2.23;;;1.30;;
5995;SDS011;3026;53.612;7.278;2023-03-08T12:22:17;2.67;;;1.00;;
5995;SDS011;3026;53.612;7.278;2023-03-08T12:24:52;3.37;;;1.10;;
5995;SDS011;3026;53.612;7.278;2023-03-08T12:27:27;2.17;;;1.30;;
5995;SDS011;3026;53.612;7.278;2023-03-08T12:30:02;1.53;;;1.23;;
5995;SDS011;3026;53.612;7.278;2023-03-08T12:32:39;2.50;;;1.27;;
5995;SDS011;3026;53.612;7.278;2023-03-08T12:35:23;3.13;;;1.60;;
5995;SDS011;3026;53.612;7.278;2023-03-08T12:37:56;3.77;;;1.77;;
5995;SDS011;3026;53.612;7.278;2023-03-08T12:40:26;2.63;;;1.70;;
5995;SDS011;3026;53.612;7.278;2023-03-08T12:43:04;6.10;;;1.90;;
5995;SDS011;3026;53.612;7.278;2023-03-08T12:45:33;4.57;;;1.50;;
5995;SDS011;3026;53.612;7.278;2023-03-08T12:48:06;1.53;;;1.40;;
5995;SDS011;3026;53.612;7.278;2023-03-08T12:50:42;3.07;;;1.50;;
5995;SDS011;3026;53.612;7.278;2023-03-08T12:53:21;3.73;;;1.57;;
5995;SDS011;3026;53.612;7.278;2023-03-08T12:56:02;3.63;;;1.60;;
5995;SDS011;3026;53.612;7.278;2023-03-08T12:58:35;2.53;;;1.37;;
5995;SDS011;3026;53.612;7.278;2023-03-08T13:01:05;3.47;;;1.47;;
5995;SDS011;3026;53.612;7.278;2023-03-08T13:03:48;4.27;;;1.50;;
5995;SDS011;3026;53.612;7.278;2023-03-08T13:06:29;6.63;;;1.33;;
5995;SDS011;3026;53.612;7.278;2023-03-08T13:09:20;2.90;;;1.10;;
5995;SDS011;3026;53.612;7.278;2023-03-08T13:11:54;0.97;;;0.87;;
5995;SDS011;3026;53.612;7.278;2023-03-08T13:14:36;7.03;;;1.50;;
5995;SDS011;3026;53.612;7.278;2023-03-08T13:20:11;1.60;;;0.87;;
5995;SDS011;3026;53.612;7.278;2023-03-08T13:22:46;1.10;;;1.00;;
5995;SDS011;3026;53.612;7.278;2023-03-08T13:25:22;4.70;;;1.10;;
5995;SDS011;3026;53.612;7.278;2023-03-08T13:28:00;2.37;;;1.20;;
5995;SDS011;3026;53.612;7.278;2023-03-08T13:30:32;2.27;;;1.20;;
5995;SDS011;3026;53.612;7.278;2023-03-08T13:33:04;5.30;;;1.50;;
5995;SDS011;3026;53.612;7.278;2023-03-08T13:35:34;4.13;;;1.70;;
5995;SDS011;3026;53.612;7.278;2023-03-08T13:38:01;3.07;;;1.53;;
5995;SDS011;3026;53.612;7.278;2023-03-08T13:40:28;3.73;;;1.53;;
5995;SDS011;3026;53.612;7.278;2023-03-08T13:42:56;2.87;;;1.40;;
5995;SDS011;3026;53.612;7.278;2023-03-08T13:45:24;4.73;;;1.97;;
5995;SDS011;3026;53.612;7.278;2023-03-08T13:47:53;4.13;;;1.40;;
5995;SDS011;3026;53.612;7.278;2023-03-08T13:50:24;3.10;;;0.90;;
5995;SDS011;3026;53.612;7.278;2023-03-08T13:52:56;3.10;;;1.23;;
5995;SDS011;3026;53.612;7.278;2023-03-08T13:55:25;2.47;;;1.13;;
5995;SDS011;3026;53.612;7.278;2023-03-08T13:57:57;2.07;;;1.00;;
5995;SDS011;3026;53.612;7.278;2023-03-08T14:00:26;3.23;;;0.83;;
5995;SDS011;3026;53.612;7.278;2023-03-08T14:02:57;1.80;;;0.60;;
5995;SDS011;3026;53.612;7.278;2023-03-08T14:05:25;3.97;;;1.10;;
5995;SDS011;3026;53.612;7.278;2023-03-08T14:07:54;0.83;;;0.70;;
5995;SDS011;3026;53.612;7.278;2023-03-08T14:10:35;4.03;;;1.30;;
5995;SDS011;3026;53.612;7.278;2023-03-08T14:13:04;3.20;;;1.00;;
5995;SDS011;3026;53.612;7.278;2023-03-08T14:15:46;5.47;;;0.90;;
5995;SDS011;3026;53.612;7.278;2023-03-08T14:18:19;3.13;;;1.40;;
5995;SDS011;3026;53.612;7.278;2023-03-08T14:20:58;1.37;;;0.70;;
5995;SDS011;3026;53.612;7.278;2023-03-08T14:23:29;1.10;;;0.80;;
5995;SDS011;3026;53.612;7.278;2023-03-08T14:25:59;5.33;;;2.17;;
5995;SDS011;3026;53.612;7.278;2023-03-08T14:28:33;2.90;;;1.83;;
5995;SDS011;3026;53.612;7.278;2023-03-08T14:31:02;3.57;;;1.90;;
5995;SDS011;3026;53.612;7.278;2023-03-08T14:33:30;9.13;;;4.07;;
5995;SDS011;3026;53.612;7.278;2023-03-08T14:35:57;5.47;;;2.00;;
5995;SDS011;3026;53.612;7.278;2023-03-08T14:38:26;2.77;;;1.10;;
5995;SDS011;3026;53.612;7.278;2023-03-08T14:40:54;14.37;;;4.70;;
5995;SDS011;3026;53.612;7.278;2023-03-08T14:43:22;23.03;;;10.87;;
5995;SDS011;3026;53.612;7.278;2023-03-08T14:45:52;8.90;;;4.50;;
5995;SDS011;3026;53.612;7.278;2023-03-08T14:48:23;4.30;;;2.67;;
5995;SDS011;3026;53.612;7.278;2023-03-08T14:50:53;4.30;;;1.93;;
5995;SDS011;3026;53.612;7.278;2023-03-08T14:53:24;1.97;;;1.40;;
5995;SDS011;3026;53.612;7.278;2023-03-08T14:55:54;3.00;;;1.00;;
5995;SDS011;3026;53.612;7.278;2023-03-08T14:58:23;2.30;;;1.10;;
5995;SDS011;3026;53.612;7.278;2023-03-08T15:00:53;7.03;;;4.07;;
5995;SDS011;3026;53.612;7.278;2023-03-08T15:03:22;1.70;;;1.60;;
5995;SDS011;3026;53.612;7.278;2023-03-08T15:05:49;2.07;;;1.00;;
5995;SDS011;3026;53.612;7.278;2023-03-08T15:08:18;4.07;;;1.93;;
5995;SDS011;3026;53.612;7.278;2023-03-08T15:10:45;2.03;;;1.57;;
5995;SDS011;3026;53.612;7.278;2023-03-08T15:13:14;1.50;;;1.40;;
5995;SDS011;3026;53.612;7.278;2023-03-08T15:15:42;2.30;;;1.43;;
5995;SDS011;3026;53.612;7.278;2023-03-08T15:18:10;5.00;;;1.57;;
5995;SDS011;3026;53.612;7.278;2023-03-08T15:20:37;3.17;;;1.60;;
5995;SDS011;3026;53.612;7.278;2023-03-08T15:23:10;2.30;;;1.20;;
5995;SDS011;3026;53.612;7.278;2023-03-08T15:25:44;4.47;;;2.20;;
5995;SDS011;3026;53.612;7.278;2023-03-08T15:28:12;2.70;;;1.60;;
5995;SDS011;3026;53.612;7.278;2023-03-08T15:30:41;2.43;;;1.43;;
5995;SDS011;3026;53.612;7.278;2023-03-08T15:33:08;3.67;;;1.30;;
5995;SDS011;3026;53.612;7.278;2023-03-08T15:35:35;3.27;;;1.50;;
5995;SDS011;3026;53.612;7.278;2023-03-08T15:38:02;5.10;;;1.90;;